sensor_id;sensor_type;location;lat;lon;timestamp;temperature;humidity
16040;DHT22;8124;48.634;8.120;2023-11-21T00:01:50;12.30;99.90
16040;DHT22;8124;48.634;8.120;2023-11-21T00:06:55;12.30;99.90
16040;DHT22;8124;48.634;8.120;2023-11-21T00:11:58;12.30;99.90
16040;DHT22;8124;48.634;8.120;2023-11-21T00:17:02;12.20;99.90
16040;DHT22;8124;48.634;8.120;2023-11-21T00:22:06;12.20;99.90
16040;DHT22;8124;48.634;8.120;2023-11-21T00:27:10;12.20;99.90
16040;DHT22;8124;48.634;8.120;2023-11-21T00:32:13;12.20;99.90
16040;DHT22;8124;48.634;8.120;2023-11-21T00:37:17;12.20;99.90
16040;DHT22;8124;48.634;8.120;2023-11-21T00:42:22;12.20;99.90
16040;DHT22;8124;48.634;8.120;2023-11-21T00:47:25;12.20;99.90
16040;DHT22;8124;48.634;8.120;2023-11-21T00:52:30;12.20;99.90
16040;DHT22;8124;48.634;8.120;2023-11-21T00:57:33;12.10;99.90
16040;DHT22;8124;48.634;8.120;2023-11-21T01:02:36;12.10;99.90
16040;DHT22;8124;48.634;8.120;2023-11-21T01:07:41;12.20;99.90
16040;DHT22;8124;48.634;8.120;2023-11-21T01:12:45;12.20;99.90
16040;DHT22;8124;48.634;8.120;2023-11-21T01:17:48;12.10;99.90
16040;DHT22;8124;48.634;8.120;2023-11-21T01:22:53;12.10;99.90
16040;DHT22;8124;48.634;8.120;2023-11-21T01:27:57;12.10;99.90
16040;DHT22;8124;48.634;8.120;2023-11-21T01:33:00;12.10;99.90
16040;DHT22;8124;48.634;8.120;2023-11-21T01:38:05;12.10;99.90
16040;DHT22;8124;48.634;8.120;2023-11-21T01:43:09;12.10;99.90
16040;DHT22;8124;48.634;8.120;2023-11-21T01:48:13;12.10;99.90
16040;DHT22;8124;48.634;8.120;2023-11-21T01:53:20;12.10;99.90
16040;DHT22;8124;48.634;8.120;2023-11-21T01:58:24;12.10;99.90
16040;DHT22;8124;48.634;8.120;2023-11-21T02:03:27;12.10;99.90
16040;DHT22;8124;48.634;8.120;2023-11-21T02:08:32;12.00;99.90
16040;DHT22;8124;48.634;8.120;2023-11-21T02:13:35;12.10;99.90
16040;DHT22;8124;48.634;8.120;2023-11-21T02:18:39;12.10;99.90
16040;DHT22;8124;48.634;8.120;2023-11-21T02:23:45;12.10;99.90
16040;DHT22;8124;48.634;8.120;2023-11-21T02:28:48;12.20;99.90
16040;DHT22;8124;48.634;8.120;2023-11-21T02:33:51;12.10;99.90
16040;DHT22;8124;48.634;8.120;2023-11-21T02:38:56;12.10;99.90
16040;DHT22;8124;48.634;8.120;2023-11-21T02:44:00;12.20;99.90
16040;DHT22;8124;48.634;8.120;2023-11-21T02:49:03;12.10;99.90
16040;DHT22;8124;48.634;8.120;2023-11-21T02:54:09;12.20;99.90
16040;DHT22;8124;48.634;8.120;2023-11-21T02:59:12;12.00;99.90
16040;DHT22;8124;48.634;8.120;2023-11-21T03:04:15;12.10;99.90
16040;DHT22;8124;48.634;8.120;2023-11-21T03:09:21;12.10;99.90
16040;DHT22;8124;48.634;8.120;2023-11-21T03:14:24;11.90;99.90
16040;DHT22;8124;48.634;8.120;2023-11-21T03:19:28;11.90;99.90
16040;DHT22;8124;48.634;8.120;2023-11-21T03:24:33;11.90;99.90
16040;DHT22;8124;48.634;8.120;2023-11-21T03:29:36;11.80;99.90
16040;DHT22;8124;48.634;8.120;2023-11-21T03:34:53;11.90;99.90
16040;DHT22;8124;48.634;8.120;2023-11-21T03:39:58;12.00;99.90
16040;DHT22;8124;48.634;8.120;2023-11-21T03:45:01;11.80;99.90
16040;DHT22;8124;48.634;8.120;2023-11-21T03:50:06;11.90;99.90
16040;DHT22;8124;48.634;8.120;2023-11-21T03:55:12;11.90;99.90
16040;DHT22;8124;48.634;8.120;2023-11-21T04:00:17;11.90;99.90
16040;DHT22;8124;48.634;8.120;2023-11-21T04:05:21;11.90;99.90
16040;DHT22;8124;48.634;8.120;2023-11-21T04:10:26;11.90;99.90
16040;DHT22;8124;48.634;8.120;2023-11-21T04:15:29;11.90;99.90
16040;DHT22;8124;48.634;8.120;2023-11-21T04:20:32;11.80;99.90
16040;DHT22;8124;48.634;8.120;2023-11-21T04:25:37;11.80;99.90
16040;DHT22;8124;48.634;8.120;2023-11-21T04:30:40;11.70;99.90
16040;DHT22;8124;48.634;8.120;2023-11-21T04:35:43;11.60;99.90
16040;DHT22;8124;48.634;8.120;2023-11-21T04:40:48;11.60;99.90
16040;DHT22;8124;48.634;8.120;2023-11-21T04:45:51;11.70;99.90
16040;DHT22;8124;48.634;8.120;2023-11-21T04:50:54;11.80;99.90
16040;DHT22;8124;48.634;8.120;2023-11-21T04:55:58;11.90;99.90
16040;DHT22;8124;48.634;8.120;2023-11-21T05:01:01;11.80;99.90
16040;DHT22;8124;48.634;8.120;2023-11-21T05:06:10;11.90;99.90
16040;DHT22;8124;48.634;8.120;2023-11-21T05:11:23;11.80;99.90
16040;DHT22;8124;48.634;8.120;2023-11-21T05:16:26;11.70;99.90
16040;DHT22;8124;48.634;8.120;2023-11-21T05:21:30;11.70;99.90
16040;DHT22;8124;48.634;8.120;2023-11-21T05:26:35;11.70;99.90
16040;DHT22;8124;48.634;8.120;2023-11-21T05:31:38;11.70;99.90
16040;DHT22;8124;48.634;8.120;2023-11-21T05:36:43;11.70;99.90
16040;DHT22;8124;48.634;8.120;2023-11-21T05:41:47;11.70;99.90
16040;DHT22;8124;48.634;8.120;2023-11-21T05:46:51;11.80;99.90
16040;DHT22;8124;48.634;8.120;2023-11-21T05:51:55;11.80;99.90
16040;DHT22;8124;48.634;8.120;2023-11-21T05:57:02;11.70;99.90
16040;DHT22;8124;48.634;8.120;2023-11-21T06:02:05;11.70;99.90
16040;DHT22;8124;48.634;8.120;2023-11-21T06:07:09;11.60;99.90
16040;DHT22;8124;48.634;8.120;2023-11-21T06:12:14;11.70;99.90
16040;DHT22;8124;48.634;8.120;2023-11-21T06:17:17;11.70;99.90
16040;DHT22;8124;48.634;8.120;2023-11-21T06:22:20;11.80;99.90
16040;DHT22;8124;48.634;8.120;2023-11-21T06:27:25;11.80;99.90
16040;DHT22;8124;48.634;8.120;2023-11-21T06:32:29;11.60;99.90
16040;DHT22;8124;48.634;8.120;2023-11-21T06:37:33;11.60;99.90
16040;DHT22;8124;48.634;8.120;2023-11-21T06:42:37;11.70;99.90
16040;DHT22;8124;48.634;8.120;2023-11-21T06:47:41;11.70;99.90
16040;DHT22;8124;48.634;8.120;2023-11-21T06:52:44;11.50;99.90
16040;DHT22;8124;48.634;8.120;2023-11-21T06:57:49;11.60;99.90
16040;DHT22;8124;48.634;8.120;2023-11-21T07:02:53;11.80;99.90
16040;DHT22;8124;48.634;8.120;2023-11-21T07:07:57;11.80;99.90
16040;DHT22;8124;48.634;8.120;2023-11-21T07:13:07;11.80;99.90
16040;DHT22;8124;48.634;8.120;2023-11-21T07:18:14;11.70;99.90
16040;DHT22;8124;48.634;8.120;2023-11-21T07:23:17;11.90;99.90
16040;DHT22;8124;48.634;8.120;2023-11-21T07:28:21;11.70;99.90
16040;DHT22;8124;48.634;8.120;2023-11-21T07:33:24;11.70;99.90
16040;DHT22;8124;48.634;8.120;2023-11-21T07:38:27;11.80;99.90
16040;DHT22;8124;48.634;8.120;2023-11-21T07:43:32;11.90;99.90
16040;DHT22;8124;48.634;8.120;2023-11-21T07:48:37;11.90;99.90
16040;DHT22;8124;48.634;8.120;2023-11-21T07:53:40;12.00;99.90
16040;DHT22;8124;48.634;8.120;2023-11-21T07:58:44;12.00;99.90
16040;DHT22;8124;48.634;8.120;2023-11-21T08:03:47;12.00;99.90
16040;DHT22;8124;48.634;8.120;2023-11-21T08:08:54;12.00;99.90
16040;DHT22;8124;48.634;8.120;2023-11-21T08:13:58;12.00;99.90
16040;DHT22;8124;48.634;8.120;2023-11-21T08:19:01;12.00;99.90
16040;DHT22;8124;48.634;8.120;2023-11-21T08:24:06;12.00;99.90
16040;DHT22;8124;48.634;8.120;2023-11-21T08:29:14;11.80;99.90
16040;DHT22;8124;48.634;8.120;2023-11-21T08:34:18;11.80;99.90
16040;DHT22;8124;48.634;8.120;2023-11-21T08:39:21;11.80;99.90
16040;DHT22;8124;48.634;8.120;2023-11-21T08:44:27;11.80;99.90
16040;DHT22;8124;48.634;8.120;2023-11-21T08:49:31;11.80;99.90
16040;DHT22;8124;48.634;8.120;2023-11-21T08:54:34;11.80;99.90
16040;DHT22;8124;48.634;8.120;2023-11-21T08:59:39;11.70;99.90
16040;DHT22;8124;48.634;8.120;2023-11-21T09:04:42;11.80;99.90
16040;DHT22;8124;48.634;8.120;2023-11-21T09:09:49;11.90;99.90
16040;DHT22;8124;48.634;8.120;2023-11-21T09:14:54;11.80;99.90
16040;DHT22;8124;48.634;8.120;2023-11-21T09:19:56;11.90;99.90
16040;DHT22;8124;48.634;8.120;2023-11-21T09:24:59;12.00;99.90
16040;DHT22;8124;48.634;8.120;2023-11-21T09:30:05;12.00;99.90
16040;DHT22;8124;48.634;8.120;2023-11-21T09:35:11;12.10;99.90
16040;DHT22;8124;48.634;8.120;2023-11-21T09:40:21;12.00;99.90
16040;DHT22;8124;48.634;8.120;2023-11-21T09:45:28;11.80;99.90
16040;DHT22;8124;48.634;8.120;2023-11-21T09:50:34;12.00;99.90
16040;DHT22;8124;48.634;8.120;2023-11-21T09:55:39;12.00;99.90
16040;DHT22;8124;48.634;8.120;2023-11-21T10:00:46;12.10;99.90
16040;DHT22;8124;48.634;8.120;2023-11-21T10:05:50;12.10;99.90
16040;DHT22;8124;48.634;8.120;2023-11-21T10:10:55;12.00;99.90
16040;DHT22;8124;48.634;8.120;2023-11-21T10:16:00;12.00;99.90
16040;DHT22;8124;48.634;8.120;2023-11-21T10:21:07;12.10;99.90
16040;DHT22;8124;48.634;8.120;2023-11-21T10:26:12;12.20;99.90
16040;DHT22;8124;48.634;8.120;2023-11-21T10:31:33;12.30;99.90
16040;DHT22;8124;48.634;8.120;2023-11-21T10:36:38;12.20;99.90
16040;DHT22;8124;48.634;8.120;2023-11-21T10:41:41;12.20;99.90
16040;DHT22;8124;48.634;8.120;2023-11-21T10:46:45;12.20;99.90
16040;DHT22;8124;48.634;8.120;2023-11-21T10:51:53;12.00;99.90
16040;DHT22;8124;48.634;8.120;2023-11-21T10:56:59;12.00;99.90
16040;DHT22;8124;48.634;8.120;2023-11-21T11:02:13;12.00;99.90
16040;DHT22;8124;48.634;8.120;2023-11-21T11:07:19;11.70;99.90
16040;DHT22;8124;48.634;8.120;2023-11-21T11:12:23;11.90;99.90
16040;DHT22;8124;48.634;8.120;2023-11-21T11:17:30;11.90;99.90
16040;DHT22;8124;48.634;8.120;2023-11-21T11:22:37;11.90;99.90
16040;DHT22;8124;48.634;8.120;2023-11-21T11:27:52;11.70;99.90
16040;DHT22;8124;48.634;8.120;2023-11-21T11:33:06;11.70;99.90
16040;DHT22;8124;48.634;8.120;2023-11-21T11:38:11;11.50;99.90
16040;DHT22;8124;48.634;8.120;2023-11-21T11:43:25;11.30;99.90
16040;DHT22;8124;48.634;8.120;2023-11-21T11:48:29;11.30;99.90
16040;DHT22;8124;48.634;8.120;2023-11-21T11:53:35;11.30;99.90
16040;DHT22;8124;48.634;8.120;2023-11-21T11:58:39;11.30;99.90
16040;DHT22;8124;48.634;8.120;2023-11-21T12:03:47;11.10;99.90
16040;DHT22;8124;48.634;8.120;2023-11-21T12:09:12;11.20;99.90
16040;DHT22;8124;48.634;8.120;2023-11-21T12:14:20;11.20;99.90
16040;DHT22;8124;48.634;8.120;2023-11-21T12:19:24;11.40;99.90
16040;DHT22;8124;48.634;8.120;2023-11-21T12:24:28;11.60;99.90
16040;DHT22;8124;48.634;8.120;2023-11-21T12:29:31;11.40;99.90
16040;DHT22;8124;48.634;8.120;2023-11-21T12:34:36;11.50;99.90
16040;DHT22;8124;48.634;8.120;2023-11-21T12:39:40;11.60;99.90
16040;DHT22;8124;48.634;8.120;2023-11-21T12:44:46;11.60;99.90
16040;DHT22;8124;48.634;8.120;2023-11-21T12:49:51;11.80;99.90
16040;DHT22;8124;48.634;8.120;2023-11-21T12:54:54;11.60;99.90
16040;DHT22;8124;48.634;8.120;2023-11-21T12:59:57;11.30;99.90
16040;DHT22;8124;48.634;8.120;2023-11-21T13:05:04;11.10;99.90
16040;DHT22;8124;48.634;8.120;2023-11-21T13:10:14;10.90;99.90
16040;DHT22;8124;48.634;8.120;2023-11-21T13:15:18;10.90;99.90
16040;DHT22;8124;48.634;8.120;2023-11-21T13:20:22;11.00;99.90
16040;DHT22;8124;48.634;8.120;2023-11-21T13:25:27;11.00;99.90
16040;DHT22;8124;48.634;8.120;2023-11-21T13:30:31;10.90;99.90
16040;DHT22;8124;48.634;8.120;2023-11-21T13:35:38;10.90;99.90
16040;DHT22;8124;48.634;8.120;2023-11-21T13:40:47;10.90;99.90
16040;DHT22;8124;48.634;8.120;2023-11-21T13:45:52;11.00;99.90
16040;DHT22;8124;48.634;8.120;2023-11-21T13:51:03;11.10;99.90
16040;DHT22;8124;48.634;8.120;2023-11-21T13:56:15;11.20;99.90
16040;DHT22;8124;48.634;8.120;2023-11-21T14:01:22;11.20;99.90
16040;DHT22;8124;48.634;8.120;2023-11-21T14:06:46;11.10;99.90
16040;DHT22;8124;48.634;8.120;2023-11-21T14:11:51;11.30;99.90
16040;DHT22;8124;48.634;8.120;2023-11-21T14:16:55;11.20;99.90
16040;DHT22;8124;48.634;8.120;2023-11-21T14:22:00;11.40;99.90
16040;DHT22;8124;48.634;8.120;2023-11-21T14:27:03;11.30;99.90
16040;DHT22;8124;48.634;8.120;2023-11-21T14:32:07;11.40;99.90
16040;DHT22;8124;48.634;8.120;2023-11-21T14:37:12;11.30;99.90
16040;DHT22;8124;48.634;8.120;2023-11-21T14:42:16;11.50;99.90
16040;DHT22;8124;48.634;8.120;2023-11-21T14:47:26;11.50;99.90
16040;DHT22;8124;48.634;8.120;2023-11-21T14:52:31;11.50;99.90
16040;DHT22;8124;48.634;8.120;2023-11-21T14:57:37;11.50;99.90
16040;DHT22;8124;48.634;8.120;2023-11-21T15:02:40;11.60;99.90
16040;DHT22;8124;48.634;8.120;2023-11-21T15:07:53;11.60;99.90
16040;DHT22;8124;48.634;8.120;2023-11-21T15:12:59;11.50;99.90
16040;DHT22;8124;48.634;8.120;2023-11-21T15:18:04;11.40;99.90
16040;DHT22;8124;48.634;8.120;2023-11-21T15:30:03;11.50;99.90
16040;DHT22;8124;48.634;8.120;2023-11-21T15:35:08;11.30;99.90
16040;DHT22;8124;48.634;8.120;2023-11-21T15:40:18;11.40;99.90
16040;DHT22;8124;48.634;8.120;2023-11-21T15:45:31;11.40;99.90
16040;DHT22;8124;48.634;8.120;2023-11-21T15:50:34;11.20;99.90
16040;DHT22;8124;48.634;8.120;2023-11-21T15:55:38;11.30;99.90
16040;DHT22;8124;48.634;8.120;2023-11-21T16:00:51;11.30;99.90
16040;DHT22;8124;48.634;8.120;2023-11-21T16:05:54;11.50;99.90
16040;DHT22;8124;48.634;8.120;2023-11-21T16:10:57;11.30;99.90
16040;DHT22;8124;48.634;8.120;2023-11-21T16:16:03;11.30;99.90
16040;DHT22;8124;48.634;8.120;2023-11-21T16:21:06;11.30;99.90
16040;DHT22;8124;48.634;8.120;2023-11-21T16:26:13;11.30;99.90
16040;DHT22;8124;48.634;8.120;2023-11-21T16:31:23;11.30;99.90
16040;DHT22;8124;48.634;8.120;2023-11-21T16:36:26;11.20;99.90
16040;DHT22;8124;48.634;8.120;2023-11-21T16:41:29;11.30;99.90
16040;DHT22;8124;48.634;8.120;2023-11-21T16:46:33;11.40;99.90
16040;DHT22;8124;48.634;8.120;2023-11-21T16:51:36;11.40;99.90
16040;DHT22;8124;48.634;8.120;2023-11-21T16:56:39;11.30;99.90
16040;DHT22;8124;48.634;8.120;2023-11-21T17:01:43;11.60;99.90
16040;DHT22;8124;48.634;8.120;2023-11-21T17:06:47;11.50;99.90
16040;DHT22;8124;48.634;8.120;2023-11-21T17:11:51;11.50;99.90
16040;DHT22;8124;48.634;8.120;2023-11-21T17:16:57;11.60;99.90
16040;DHT22;8124;48.634;8.120;2023-11-21T17:22:01;11.70;99.90
16040;DHT22;8124;48.634;8.120;2023-11-21T17:27:04;11.70;99.90
16040;DHT22;8124;48.634;8.120;2023-11-21T17:32:10;11.70;99.90
16040;DHT22;8124;48.634;8.120;2023-11-21T17:37:16;11.70;99.90
16040;DHT22;8124;48.634;8.120;2023-11-21T17:42:19;11.80;99.90
16040;DHT22;8124;48.634;8.120;2023-11-21T17:47:24;11.70;99.90
16040;DHT22;8124;48.634;8.120;2023-11-21T17:52:28;11.50;99.90
16040;DHT22;8124;48.634;8.120;2023-11-21T17:57:31;11.40;99.90
16040;DHT22;8124;48.634;8.120;2023-11-21T18:02:36;11.30;99.90
16040;DHT22;8124;48.634;8.120;2023-11-21T18:07:39;11.30;99.90
16040;DHT22;8124;48.634;8.120;2023-11-21T18:12:42;11.40;99.90
16040;DHT22;8124;48.634;8.120;2023-11-21T18:17:47;11.40;99.90
16040;DHT22;8124;48.634;8.120;2023-11-21T18:22:50;11.40;99.90
16040;DHT22;8124;48.634;8.120;2023-11-21T18:27:53;11.40;99.90
16040;DHT22;8124;48.634;8.120;2023-11-21T18:32:57;11.50;99.90
16040;DHT22;8124;48.634;8.120;2023-11-21T18:38:01;11.50;99.90
16040;DHT22;8124;48.634;8.120;2023-11-21T18:43:04;11.40;99.90
16040;DHT22;8124;48.634;8.120;2023-11-21T18:48:08;11.50;99.90
16040;DHT22;8124;48.634;8.120;2023-11-21T18:53:13;11.50;99.90
16040;DHT22;8124;48.634;8.120;2023-11-21T18:58:16;11.50;99.90
16040;DHT22;8124;48.634;8.120;2023-11-21T19:03:22;11.50;99.90
16040;DHT22;8124;48.634;8.120;2023-11-21T19:08:25;11.50;99.90
16040;DHT22;8124;48.634;8.120;2023-11-21T19:13:28;11.50;99.90
16040;DHT22;8124;48.634;8.120;2023-11-21T19:18:33;11.50;99.90
16040;DHT22;8124;48.634;8.120;2023-11-21T19:23:36;11.50;99.90
16040;DHT22;8124;48.634;8.120;2023-11-21T19:28:39;11.50;99.90
16040;DHT22;8124;48.634;8.120;2023-11-21T19:33:43;11.50;99.90
16040;DHT22;8124;48.634;8.120;2023-11-21T19:38:46;11.50;99.90
16040;DHT22;8124;48.634;8.120;2023-11-21T19:43:50;11.50;99.90
16040;DHT22;8124;48.634;8.120;2023-11-21T19:48:55;11.40;99.90
16040;DHT22;8124;48.634;8.120;2023-11-21T19:53:59;11.40;99.90
16040;DHT22;8124;48.634;8.120;2023-11-21T19:59:02;11.10;99.90
16040;DHT22;8124;48.634;8.120;2023-11-21T20:04:06;11.10;99.90
16040;DHT22;8124;48.634;8.120;2023-11-21T20:09:11;11.00;99.90
16040;DHT22;8124;48.634;8.120;2023-11-21T20:14:14;11.00;99.90
16040;DHT22;8124;48.634;8.120;2023-11-21T20:19:18;10.90;99.90
16040;DHT22;8124;48.634;8.120;2023-11-21T20:24:21;11.10;99.90
16040;DHT22;8124;48.634;8.120;2023-11-21T20:29:25;11.20;99.90
16040;DHT22;8124;48.634;8.120;2023-11-21T20:34:29;11.10;99.90
16040;DHT22;8124;48.634;8.120;2023-11-21T20:39:32;10.90;99.90
16040;DHT22;8124;48.634;8.120;2023-11-21T20:44:38;10.80;99.90
16040;DHT22;8124;48.634;8.120;2023-11-21T20:49:42;10.70;99.90
16040;DHT22;8124;48.634;8.120;2023-11-21T20:54:50;10.80;99.90
16040;DHT22;8124;48.634;8.120;2023-11-21T20:59:53;10.80;99.90
16040;DHT22;8124;48.634;8.120;2023-11-21T21:04:57;10.90;99.90
16040;DHT22;8124;48.634;8.120;2023-11-21T21:10:00;10.80;99.90
16040;DHT22;8124;48.634;8.120;2023-11-21T21:15:04;10.70;99.90
16040;DHT22;8124;48.634;8.120;2023-11-21T21:20:09;10.70;99.90
16040;DHT22;8124;48.634;8.120;2023-11-21T21:25:12;10.70;99.90
16040;DHT22;8124;48.634;8.120;2023-11-21T21:30:16;10.70;99.90
16040;DHT22;8124;48.634;8.120;2023-11-21T21:35:20;10.50;99.90
16040;DHT22;8124;48.634;8.120;2023-11-21T21:40:24;10.50;99.90
16040;DHT22;8124;48.634;8.120;2023-11-21T21:45:28;10.50;99.90
16040;DHT22;8124;48.634;8.120;2023-11-21T21:50:32;10.50;99.90
16040;DHT22;8124;48.634;8.120;2023-11-21T21:55:35;10.30;99.90
16040;DHT22;8124;48.634;8.120;2023-11-21T22:00:38;10.40;99.90
16040;DHT22;8124;48.634;8.120;2023-11-21T22:05:42;10.40;99.90
16040;DHT22;8124;48.634;8.120;2023-11-21T22:10:45;10.80;99.90
16040;DHT22;8124;48.634;8.120;2023-11-21T22:15:48;11.00;99.90
16040;DHT22;8124;48.634;8.120;2023-11-21T22:20:53;11.00;99.90
16040;DHT22;8124;48.634;8.120;2023-11-21T22:25:56;11.10;99.90
16040;DHT22;8124;48.634;8.120;2023-11-21T22:30:59;11.10;99.90
16040;DHT22;8124;48.634;8.120;2023-11-21T22:36:04;11.20;99.90
16040;DHT22;8124;48.634;8.120;2023-11-21T22:41:07;11.00;99.90
16040;DHT22;8124;48.634;8.120;2023-11-21T22:46:10;11.00;99.90
16040;DHT22;8124;48.634;8.120;2023-11-21T22:51:17;11.00;99.90
16040;DHT22;8124;48.634;8.120;2023-11-21T22:56:21;11.10;99.90
16040;DHT22;8124;48.634;8.120;2023-11-21T23:01:24;11.00;99.90
16040;DHT22;8124;48.634;8.120;2023-11-21T23:06:29;11.00;99.90
16040;DHT22;8124;48.634;8.120;2023-11-21T23:11:31;11.00;99.90
16040;DHT22;8124;48.634;8.120;2023-11-21T23:16:34;11.00;99.90
16040;DHT22;8124;48.634;8.120;2023-11-21T23:21:39;11.00;99.90
16040;DHT22;8124;48.634;8.120;2023-11-21T23:26:42;11.20;99.90
16040;DHT22;8124;48.634;8.120;2023-11-21T23:31:45;11.20;99.90
16040;DHT22;8124;48.634;8.120;2023-11-21T23:36:49;11.20;99.90
16040;DHT22;8124;48.634;8.120;2023-11-21T23:41:52;11.20;99.90
16040;DHT22;8124;48.634;8.120;2023-11-21T23:46:55;11.10;99.90
16040;DHT22;8124;48.634;8.120;2023-11-21T23:51:59;11.20;99.90
16040;DHT22;8124;48.634;8.120;2023-11-21T23:57:03;11.10;99.90
